createdAt,value
2023-03-06T00:00:48.622Z,46.35
2023-03-06T00:03:15.510Z,46.08
2023-03-06T00:05:42.307Z,52.08
2023-03-06T00:08:09.127Z,33.83
2023-03-06T00:10:35.700Z,38.70
2023-03-06T00:13:05.670Z,44.25
2023-03-06T00:15:32.546Z,41.65
2023-03-06T00:17:59.260Z,40.85
2023-03-06T00:20:26.740Z,37.90
2023-03-06T00:22:55.424Z,38.38
2023-03-06T00:25:22.664Z,35.40
2023-03-06T00:27:50.307Z,45.55
2023-03-06T00:30:20.169Z,39.42
2023-03-06T00:32:46.719Z,40.67
2023-03-06T00:35:14.371Z,44.13
2023-03-06T00:37:41.303Z,41.72
2023-03-06T00:40:10.665Z,44.35
2023-03-06T00:42:37.223Z,43.28
2023-03-06T00:45:04.100Z,36.95
2023-03-06T00:47:30.683Z,40.38
2023-03-06T00:49:57.249Z,44.90
2023-03-06T00:52:23.935Z,42.15
2023-03-06T00:54:50.618Z,36.45
2023-03-06T00:57:17.180Z,32.22
2023-03-06T00:59:43.717Z,35.17
2023-03-06T01:02:10.698Z,37.85
2023-03-06T01:04:37.326Z,39.20
2023-03-06T01:07:04.055Z,35.53
2023-03-06T01:09:30.707Z,32.42
2023-03-06T01:11:57.394Z,36.15
2023-03-06T01:14:24.402Z,37.42
2023-03-06T01:16:50.890Z,44.28
2023-03-06T01:19:17.990Z,32.88
2023-03-06T01:21:44.573Z,28.23
2023-03-06T01:24:11.168Z,35.38
2023-03-06T01:26:37.780Z,40.83
2023-03-06T01:29:04.383Z,32.45
2023-03-06T01:31:30.938Z,31.33
2023-03-06T01:33:57.530Z,36.25
2023-03-06T01:36:24.385Z,38.55
2023-03-06T01:38:50.991Z,38.72
2023-03-06T01:41:18.028Z,35.10
2023-03-06T01:43:47.180Z,34.05
2023-03-06T01:48:52.522Z,35.65
2023-03-06T01:51:19.317Z,32.80
2023-03-06T01:53:47.561Z,32.28
2023-03-06T01:56:15.465Z,36.10
2023-03-06T01:58:44.743Z,36.42
2023-03-06T02:01:14.484Z,30.52
2023-03-06T02:03:42.877Z,33.50
2023-03-06T02:06:09.673Z,32.75
2023-03-06T02:08:36.443Z,36.58
2023-03-06T02:11:08.807Z,32.60
2023-03-06T02:13:36.407Z,38.03
2023-03-06T02:16:02.960Z,36.50
2023-03-06T02:18:30.046Z,24.17
2023-03-06T02:21:09.878Z,29.77
2023-03-06T02:24:13.070Z,30.92
2023-03-06T02:26:41.909Z,32.15
2023-03-06T02:29:09.280Z,29.02
2023-03-06T02:31:36.055Z,26.88
2023-03-06T02:34:07.539Z,31.40
2023-03-06T02:36:40.980Z,29.67
2023-03-06T02:39:07.940Z,34.72
2023-03-06T02:41:34.565Z,33.55
2023-03-06T02:44:01.127Z,32.92
2023-03-06T02:46:27.783Z,27.40
2023-03-06T02:48:54.552Z,30.70
2023-03-06T02:51:21.511Z,30.50
2023-03-06T02:53:48.064Z,35.03
2023-03-06T02:56:15.153Z,33.90
2023-03-06T02:58:42.097Z,34.03
2023-03-06T03:01:08.726Z,35.58
2023-03-06T03:03:35.305Z,30.40
2023-03-06T03:06:05.358Z,25.83
2023-03-06T03:08:32.911Z,29.95
2023-03-06T03:11:00.873Z,30.17
2023-03-06T03:13:27.418Z,39.05
2023-03-06T03:16:01.052Z,34.03
2023-03-06T03:18:27.804Z,31.25
2023-03-06T03:20:54.761Z,25.52
2023-03-06T03:23:21.816Z,33.13
2023-03-06T03:25:48.410Z,33.67
2023-03-06T03:28:15.292Z,28.80
2023-03-06T03:30:42.917Z,36.80
2023-03-06T03:33:09.743Z,31.83
2023-03-06T03:35:36.381Z,32.40
2023-03-06T03:38:03.272Z,33.45
2023-03-06T03:40:29.907Z,32.42
2023-03-06T03:42:56.453Z,37.17
2023-03-06T03:45:23.707Z,29.02
2023-03-06T03:47:50.217Z,33.28
2023-03-06T03:50:16.752Z,29.00
2023-03-06T03:52:43.400Z,29.35
2023-03-06T03:55:10.275Z,42.72
2023-03-06T03:57:39.123Z,36.92
2023-03-06T04:00:07.874Z,35.67
2023-03-06T04:02:34.470Z,31.40
2023-03-06T04:05:01.087Z,33.53
2023-03-06T04:07:27.669Z,30.30
2023-03-06T04:09:54.258Z,31.75
2023-03-06T04:12:20.839Z,36.10
2023-03-06T04:14:47.431Z,31.88
2023-03-06T04:17:14.000Z,32.53
2023-03-06T04:19:40.507Z,33.92
2023-03-06T04:22:07.025Z,40.25
2023-03-06T04:24:33.596Z,36.63
2023-03-06T04:27:00.211Z,35.42
2023-03-06T04:29:26.833Z,30.88
2023-03-06T04:31:53.392Z,31.35
2023-03-06T04:34:19.989Z,38.55
2023-03-06T04:36:46.600Z,37.75
2023-03-06T04:39:14.185Z,35.58
2023-03-06T04:41:41.938Z,33.15
2023-03-06T04:44:09.323Z,38.78
2023-03-06T04:46:36.395Z,30.58
2023-03-06T04:49:04.117Z,40.83
2023-03-06T04:51:30.977Z,35.35
2023-03-06T04:53:57.682Z,37.20
2023-03-06T04:56:24.376Z,38.70
2023-03-06T04:58:53.697Z,30.38
2023-03-06T05:01:20.368Z,34.03
2023-03-06T05:03:46.946Z,35.53
2023-03-06T05:06:14.990Z,36.25
2023-03-06T05:08:41.648Z,34.13
2023-03-06T05:11:08.246Z,29.90
2023-03-06T05:13:34.834Z,35.30
2023-03-06T05:16:05.667Z,36.35
2023-03-06T05:18:35.612Z,35.08
2023-03-06T05:21:03.092Z,40.58
2023-03-06T05:23:32.620Z,39.55
2023-03-06T05:25:59.550Z,40.45
2023-03-06T05:28:27.029Z,35.28
2023-03-06T05:30:53.664Z,47.25
2023-03-06T05:33:20.200Z,52.47
2023-03-06T05:35:48.205Z,59.25
2023-03-06T05:38:15.985Z,51.72
2023-03-06T05:40:43.921Z,51.13
2023-03-06T05:43:11.918Z,50.92
2023-03-06T05:45:39.608Z,46.58
2023-03-06T05:48:07.244Z,40.70
2023-03-06T05:50:34.222Z,39.00
2023-03-06T05:53:01.361Z,43.22
2023-03-06T05:55:27.867Z,47.45
2023-03-06T05:57:54.510Z,52.55
2023-03-06T06:00:21.937Z,46.67
2023-03-06T06:02:48.892Z,51.53
2023-03-06T06:05:15.497Z,49.88
2023-03-06T06:07:42.629Z,41.60
2023-03-06T06:10:10.919Z,46.65
2023-03-06T06:12:37.850Z,42.40
2023-03-06T06:15:04.969Z,48.28
2023-03-06T06:17:31.770Z,46.88
2023-03-06T06:19:58.297Z,41.08
2023-03-06T06:22:24.894Z,49.65
2023-03-06T06:24:51.457Z,50.55
2023-03-06T06:27:18.044Z,43.40
2023-03-06T06:29:44.613Z,42.55
2023-03-06T06:32:12.337Z,54.42
2023-03-06T06:34:39.876Z,45.38
2023-03-06T06:37:06.578Z,51.70
2023-03-06T06:39:33.129Z,53.78
2023-03-06T06:42:20.278Z,52.63
2023-03-06T06:44:46.352Z,43.50
2023-03-06T06:47:28.152Z,42.63
2023-03-06T06:49:57.095Z,49.92
2023-03-06T06:52:24.729Z,40.67
2023-03-06T06:54:52.042Z,51.83
2023-03-06T06:57:18.660Z,51.17
2023-03-06T06:59:45.246Z,48.17
2023-03-06T07:02:13.847Z,51.55
2023-03-06T07:04:49.274Z,47.70
2023-03-06T07:07:25.367Z,47.15
2023-03-06T07:12:18.475Z,46.30
2023-03-06T07:14:44.991Z,56.85
2023-03-06T07:17:11.520Z,48.47
2023-03-06T07:19:38.742Z,60.15
2023-03-06T07:22:07.568Z,53.85
2023-03-06T07:24:34.415Z,55.72
2023-03-06T07:27:00.910Z,49.25
2023-03-06T07:29:27.530Z,43.20
2023-03-06T07:31:54.098Z,49.33
2023-03-06T07:34:20.736Z,49.30
2023-03-06T07:36:47.321Z,45.67
2023-03-06T07:39:13.829Z,52.28
2023-03-06T07:41:40.410Z,54.33
2023-03-06T07:44:07.002Z,56.17
2023-03-06T07:46:33.620Z,63.58
2023-03-06T07:49:02.328Z,54.92
2023-03-06T07:51:28.998Z,58.40
2023-03-06T07:53:55.607Z,59.88
2023-03-06T07:56:22.212Z,61.72
2023-03-06T07:58:48.817Z,66.70
2023-03-06T08:01:19.854Z,53.63
2023-03-06T08:03:47.977Z,53.08
2023-03-06T08:06:18.058Z,58.80
2023-03-06T08:08:46.720Z,58.70
2023-03-06T08:11:15.634Z,57.90
2023-03-06T08:13:42.837Z,58.13
2023-03-06T08:16:09.886Z,69.05
2023-03-06T08:18:39.494Z,68.65
2023-03-06T08:21:12.082Z,61.10
2023-03-06T08:23:39.526Z,61.03
2023-03-06T08:26:17.280Z,57.55
2023-03-06T08:28:44.075Z,66.40
2023-03-06T08:31:13.653Z,51.03
2023-03-06T08:33:41.791Z,47.65
2023-03-06T08:36:08.726Z,58.13
2023-03-06T08:38:35.320Z,56.22
2023-03-06T08:41:02.076Z,58.38
2023-03-06T08:43:28.729Z,64.47
2023-03-06T08:45:58.010Z,55.38
2023-03-06T08:48:25.003Z,64.05
2023-03-06T08:50:52.080Z,55.92
2023-03-06T08:53:18.924Z,60.67
2023-03-06T08:55:45.546Z,67.25
2023-03-06T08:58:12.098Z,56.90
2023-03-06T09:00:38.821Z,59.63
2023-03-06T09:03:05.830Z,68.40
2023-03-06T09:05:32.571Z,53.42
2023-03-06T09:07:59.174Z,59.40
2023-03-06T09:10:26.175Z,63.20
2023-03-06T09:12:55.108Z,54.67
2023-03-06T09:15:23.024Z,61.10
2023-03-06T09:17:50.899Z,61.70
2023-03-06T09:20:18.819Z,53.15
2023-03-06T09:22:45.962Z,54.58
2023-03-06T09:25:14.122Z,62.35
2023-03-06T09:27:41.613Z,58.40
2023-03-06T09:30:09.570Z,50.35
2023-03-06T09:32:36.207Z,53.88
2023-03-06T09:35:02.850Z,53.17
2023-03-06T09:37:29.429Z,49.72
2023-03-06T09:39:56.463Z,53.60
2023-03-06T09:42:23.830Z,59.22
2023-03-06T09:44:59.385Z,51.00
2023-03-06T09:48:00.883Z,47.97
2023-03-06T09:50:38.516Z,47.92
2023-03-06T09:53:41.143Z,48.10
2023-03-06T09:56:17.294Z,41.10
2023-03-06T09:58:53.834Z,47.17
2023-03-06T10:01:25.855Z,45.15
2023-03-06T10:04:16.271Z,48.88
2023-03-06T10:06:50.362Z,43.17
2023-03-06T10:09:35.907Z,42.38
2023-03-06T10:12:06.743Z,43.33
2023-03-06T10:14:48.413Z,47.55
2023-03-06T10:17:22.241Z,37.53
2023-03-06T10:19:49.864Z,45.40
2023-03-06T10:22:24.593Z,45.30
2023-03-06T10:25:00.825Z,38.72
2023-03-06T10:27:58.462Z,41.67
2023-03-06T10:30:44.712Z,39.80
2023-03-06T10:33:39.109Z,41.42
2023-03-06T10:36:06.022Z,46.03
2023-03-06T10:38:34.539Z,45.95
2023-03-06T10:41:11.878Z,42.88
2023-03-06T10:43:43.713Z,42.97
2023-03-06T10:46:13.132Z,48.22
2023-03-06T10:48:42.351Z,44.42
2023-03-06T10:51:24.398Z,41.58
2023-03-06T10:53:59.788Z,48.20
2023-03-06T10:56:35.522Z,42.70
2023-03-06T10:59:20.524Z,48.08
2023-03-06T11:01:52.371Z,50.15
2023-03-06T11:04:26.258Z,43.92
2023-03-06T11:07:14.639Z,42.65
2023-03-06T11:09:43.845Z,46.35
2023-03-06T11:12:21.085Z,49.50
2023-03-06T11:14:47.706Z,45.20
2023-03-06T11:17:32.205Z,43.03
2023-03-06T11:20:19.151Z,49.60
2023-03-06T11:23:10.333Z,43.13
2023-03-06T11:26:03.663Z,47.22
2023-03-06T11:28:45.060Z,46.60
2023-03-06T11:31:20.842Z,38.75
2023-03-06T11:34:06.196Z,38.55
2023-03-06T11:36:41.411Z,41.53
2023-03-06T11:39:30.593Z,40.35
2023-03-06T11:42:05.521Z,43.08
2023-03-06T11:44:57.031Z,37.25
2023-03-06T11:47:28.903Z,37.85
2023-03-06T11:50:04.222Z,41.50
2023-03-06T11:52:57.517Z,37.38
2023-03-06T11:55:38.945Z,34.08
2023-03-06T11:58:24.345Z,38.30
2023-03-06T12:00:59.001Z,39.35
2023-03-06T12:03:44.114Z,35.10
2023-03-06T12:06:18.379Z,32.15
2023-03-06T12:08:53.345Z,31.67
2023-03-06T12:11:25.451Z,32.05
2023-03-06T12:14:03.665Z,29.55
2023-03-06T12:17:18.828Z,36.58
2023-03-06T12:20:01.814Z,32.75
2023-03-06T12:22:57.964Z,30.02
2023-03-06T12:25:45.134Z,32.58
2023-03-06T12:28:50.296Z,32.95
2023-03-06T12:31:17.710Z,30.00
2023-03-06T12:33:50.282Z,31.25
2023-03-06T12:36:43.092Z,29.65
2023-03-06T12:39:30.958Z,32.20
2023-03-06T12:42:06.739Z,28.30
2023-03-06T12:44:38.195Z,28.97
2023-03-06T12:47:15.898Z,31.63
2023-03-06T12:49:46.052Z,27.40
2023-03-06T12:52:33.123Z,29.13
2023-03-06T12:55:04.437Z,35.33
2023-03-06T12:57:33.671Z,27.63
2023-03-06T13:00:00.311Z,27.27
2023-03-06T13:02:33.063Z,30.80
2023-03-06T13:05:18.170Z,26.25
2023-03-06T13:08:12.666Z,26.83
2023-03-06T13:10:42.251Z,29.60
2023-03-06T13:13:42.708Z,27.40
2023-03-06T13:16:18.758Z,27.10
2023-03-06T13:19:32.762Z,24.25
2023-03-06T13:22:01.714Z,29.02
2023-03-06T13:24:35.574Z,35.08
2023-03-06T13:27:08.001Z,29.40
2023-03-06T13:29:36.992Z,26.65
2023-03-06T13:32:03.475Z,30.17
2023-03-06T13:34:50.265Z,25.63
2023-03-06T13:37:16.820Z,24.85
2023-03-06T13:39:55.067Z,27.50
2023-03-06T13:42:31.802Z,23.38
2023-03-06T13:45:14.839Z,28.88
2023-03-06T13:50:42.972Z,30.70
2023-03-06T13:53:18.695Z,29.83
2023-03-06T13:56:00.633Z,29.45
2023-03-06T13:58:51.463Z,30.05
2023-03-06T14:01:36.292Z,28.80
2023-03-06T14:04:21.926Z,32.10
2023-03-06T14:06:52.581Z,29.63
2023-03-06T14:09:24.205Z,25.88
2023-03-06T14:12:02.236Z,33.30
2023-03-06T14:14:35.577Z,27.77
2023-03-06T14:17:05.290Z,28.10
2023-03-06T14:19:37.597Z,36.38
2023-03-06T14:22:05.803Z,29.73
2023-03-06T14:24:39.090Z,28.30
2023-03-06T14:27:06.864Z,25.00
2023-03-06T14:29:33.891Z,34.60
2023-03-06T14:32:01.961Z,25.45
2023-03-06T14:34:31.100Z,28.35
2023-03-06T14:37:05.445Z,27.35
2023-03-06T14:39:38.823Z,27.63
2023-03-06T14:42:21.974Z,27.55
2023-03-06T14:44:59.574Z,30.00
2023-03-06T14:47:30.115Z,26.95
2023-03-06T14:50:21.771Z,24.88
2023-03-06T14:52:55.303Z,29.83
2023-03-06T14:55:25.285Z,28.33
2023-03-06T14:58:15.409Z,30.13
2023-03-06T15:00:47.317Z,24.73
2023-03-06T15:03:21.554Z,25.70
2023-03-06T15:05:49.310Z,23.88
2023-03-06T15:08:25.744Z,25.38
2023-03-06T15:11:01.734Z,27.70
2023-03-06T15:13:30.421Z,20.88
2023-03-06T15:15:58.220Z,25.25
2023-03-06T15:18:30.646Z,24.30
2023-03-06T15:21:13.337Z,26.00
2023-03-06T15:23:42.204Z,18.17
2023-03-06T15:26:33.872Z,24.42
2023-03-06T15:29:23.923Z,24.13
2023-03-06T15:31:50.703Z,24.65
2023-03-06T15:34:23.700Z,24.42
2023-03-06T15:36:54.282Z,27.10
2023-03-06T15:39:41.075Z,28.02
2023-03-06T15:42:21.008Z,24.60
2023-03-06T15:44:50.081Z,22.92
2023-03-06T15:47:17.134Z,23.33
2023-03-06T15:49:44.077Z,31.08
2023-03-06T15:52:10.784Z,24.90
2023-03-06T15:54:38.111Z,26.63
2023-03-06T15:57:07.284Z,23.17
2023-03-06T15:59:42.846Z,28.27
2023-03-06T16:02:19.144Z,25.13
2023-03-06T16:04:46.472Z,23.23
2023-03-06T16:07:13.597Z,24.33
2023-03-06T16:09:44.125Z,19.52
2023-03-06T16:12:17.649Z,25.10
2023-03-06T16:14:49.068Z,24.27
2023-03-06T16:17:16.924Z,23.70
2023-03-06T16:19:43.679Z,24.95
2023-03-06T16:22:10.860Z,19.52
2023-03-06T16:24:37.779Z,24.70
2023-03-06T16:27:04.929Z,22.13
2023-03-06T16:29:31.928Z,20.60
2023-03-06T16:32:01.730Z,20.73
2023-03-06T16:34:28.757Z,20.70
2023-03-06T16:36:56.661Z,23.70
2023-03-06T16:39:24.380Z,29.37
2023-03-06T16:41:52.171Z,22.20
2023-03-06T16:44:19.707Z,22.88
2023-03-06T16:46:49.156Z,25.98
2023-03-06T16:49:21.309Z,21.17
2023-03-06T16:51:49.147Z,21.52
2023-03-06T16:54:16.008Z,19.17
2023-03-06T16:56:43.462Z,28.98
2023-03-06T16:59:10.581Z,21.10
2023-03-06T17:01:37.733Z,17.05
2023-03-06T17:04:05.968Z,21.95
2023-03-06T17:06:32.543Z,25.73
2023-03-06T17:09:01.456Z,23.92
2023-03-06T17:11:28.322Z,22.73
2023-03-06T17:13:55.410Z,19.50
2023-03-06T17:16:22.375Z,23.40
2023-03-06T17:18:49.840Z,18.85
2023-03-06T17:21:16.616Z,26.45
2023-03-06T17:23:44.594Z,35.03
2023-03-06T17:26:13.144Z,28.00
2023-03-06T17:28:40.999Z,22.08
2023-03-06T17:31:20.308Z,24.00
2023-03-06T17:33:46.922Z,26.27
2023-03-06T17:36:14.638Z,21.05
2023-03-06T17:38:42.174Z,23.88
2023-03-06T17:41:10.250Z,21.30
2023-03-06T17:43:37.906Z,20.60
2023-03-06T17:46:06.049Z,20.80
2023-03-06T17:48:32.994Z,28.25
2023-03-06T17:51:00.929Z,28.38
2023-03-06T17:53:28.185Z,33.08
2023-03-06T17:55:55.405Z,24.73
2023-03-06T17:58:22.212Z,20.40
2023-03-06T18:00:49.072Z,25.70
2023-03-06T18:03:15.953Z,24.17
2023-03-06T18:05:42.521Z,25.77
2023-03-06T18:08:10.301Z,25.92
2023-03-06T18:10:47.640Z,28.95
2023-03-06T18:13:14.170Z,29.20
2023-03-06T18:15:41.573Z,25.77
2023-03-06T18:18:08.807Z,24.88
2023-03-06T18:20:41.059Z,29.73
2023-03-06T18:23:07.637Z,27.38
2023-03-06T18:25:34.225Z,22.13
2023-03-06T18:28:00.964Z,29.25
2023-03-06T18:30:27.558Z,26.88
2023-03-06T18:32:54.480Z,30.90
2023-03-06T18:35:21.599Z,27.90
2023-03-06T18:37:48.181Z,34.47
2023-03-06T18:40:15.181Z,29.08
2023-03-06T18:42:41.817Z,32.50
2023-03-06T18:45:08.882Z,27.27
2023-03-06T18:47:35.501Z,25.00
2023-03-06T18:50:05.179Z,34.15
2023-03-06T18:52:31.760Z,27.30
2023-03-06T18:54:58.334Z,28.63
2023-03-06T18:57:24.931Z,29.85
2023-03-06T18:59:51.542Z,30.35
2023-03-06T19:02:18.114Z,29.30
2023-03-06T19:04:44.771Z,27.17
2023-03-06T19:07:16.013Z,34.88
2023-03-06T19:09:44.372Z,33.33
2023-03-06T19:12:11.569Z,31.08
2023-03-06T19:14:38.424Z,26.40
2023-03-06T19:17:05.237Z,28.45
2023-03-06T19:19:31.819Z,42.10
2023-03-06T19:21:58.929Z,26.60
2023-03-06T19:24:25.590Z,31.27
2023-03-06T19:26:52.318Z,25.75
2023-03-06T19:29:18.866Z,29.70
2023-03-06T19:31:45.436Z,32.60
2023-03-06T19:34:12.007Z,32.55
2023-03-06T19:36:40.642Z,29.23
2023-03-06T19:39:08.127Z,28.58
2023-03-06T19:41:34.740Z,31.40
2023-03-06T19:44:03.350Z,34.28
2023-03-06T19:46:32.026Z,30.10
2023-03-06T19:49:02.144Z,34.13
2023-03-06T19:51:29.299Z,33.20
2023-03-06T19:53:56.884Z,28.73
2023-03-06T19:56:30.183Z,28.95
2023-03-06T19:58:56.797Z,34.20
2023-03-06T20:01:26.238Z,32.33
2023-03-06T20:03:58.899Z,33.25
2023-03-06T20:06:31.068Z,34.35
2023-03-06T20:08:58.994Z,31.02
2023-03-06T20:11:29.797Z,30.30
2023-03-06T20:14:01.783Z,25.80
2023-03-06T20:16:29.588Z,29.48
2023-03-06T20:18:58.736Z,31.20
2023-03-06T20:21:26.771Z,33.10
2023-03-06T20:23:54.895Z,39.63
2023-03-06T20:26:21.525Z,35.55
2023-03-06T20:28:48.460Z,31.02
2023-03-06T20:31:21.710Z,30.67
2023-03-06T20:33:50.850Z,32.75
2023-03-06T20:36:21.492Z,34.42
2023-03-06T20:38:48.832Z,33.58
2023-03-06T20:41:23.770Z,38.25
2023-03-06T20:43:51.188Z,29.20
2023-03-06T20:46:18.894Z,29.55
2023-03-06T20:48:49.143Z,35.42
2023-03-06T20:51:18.505Z,40.35
2023-03-06T20:53:47.660Z,37.75
2023-03-06T20:56:15.945Z,32.72
2023-03-06T20:58:43.261Z,35.78
2023-03-06T21:01:09.969Z,30.50
2023-03-06T21:03:36.593Z,31.30
2023-03-06T21:06:03.431Z,31.88
2023-03-06T21:08:31.361Z,32.67
2023-03-06T21:10:57.939Z,35.28
2023-03-06T21:13:24.626Z,31.23
2023-03-06T21:15:51.296Z,33.03
2023-03-06T21:18:18.133Z,29.95
2023-03-06T21:20:44.940Z,33.05
2023-03-06T21:23:11.517Z,29.70
2023-03-06T21:25:46.060Z,32.35
2023-03-06T21:28:12.548Z,32.95
2023-03-06T21:30:39.110Z,36.08
2023-03-06T21:33:05.805Z,27.52
2023-03-06T21:35:36.559Z,29.73
2023-03-06T21:38:03.094Z,29.77
2023-03-06T21:40:29.653Z,37.50
2023-03-06T21:42:56.163Z,31.92
2023-03-06T21:45:22.721Z,33.35
2023-03-06T21:47:49.536Z,32.42
2023-03-06T21:50:17.455Z,36.38
2023-03-06T21:52:44.046Z,34.50
2023-03-06T21:55:10.597Z,35.28
2023-03-06T21:57:37.203Z,33.67
2023-03-06T22:00:08.436Z,32.25
2023-03-06T22:02:35.696Z,32.05
2023-03-06T22:05:02.286Z,36.97
2023-03-06T22:07:29.202Z,34.75
2023-03-06T22:09:55.923Z,36.70
2023-03-06T22:12:22.454Z,30.08
2023-03-06T22:14:49.005Z,34.75
2023-03-06T22:17:15.580Z,27.15
2023-03-06T22:19:42.082Z,28.58
2023-03-06T22:22:10.709Z,44.55
2023-03-06T22:24:37.345Z,37.65
2023-03-06T22:27:04.050Z,41.03
2023-03-06T22:29:30.566Z,28.30
2023-03-06T22:31:58.708Z,38.90
2023-03-06T22:34:26.600Z,32.57
2023-03-06T22:36:53.162Z,27.27
2023-03-06T22:39:19.697Z,38.40
2023-03-06T22:41:46.272Z,27.25
2023-03-06T22:44:17.304Z,33.22
2023-03-06T22:46:44.462Z,37.95
2023-03-06T22:49:12.619Z,42.42
2023-03-06T22:51:40.166Z,29.00
2023-03-06T22:54:08.822Z,28.08
2023-03-06T22:56:36.198Z,29.38
2023-03-06T22:59:04.302Z,28.45
2023-03-06T23:01:33.742Z,29.63
2023-03-06T23:04:03.381Z,34.05
2023-03-06T23:06:35.304Z,31.45
2023-03-06T23:09:08.265Z,31.92
2023-03-06T23:11:35.194Z,32.08
2023-03-06T23:14:02.336Z,28.20
2023-03-06T23:16:29.311Z,28.88
2023-03-06T23:18:55.897Z,32.70
2023-03-06T23:21:23.221Z,32.08
2023-03-06T23:23:54.173Z,33.50
2023-03-06T23:26:23.618Z,29.85
2023-03-06T23:28:51.175Z,34.40
2023-03-06T23:31:22.785Z,32.83
2023-03-06T23:33:49.978Z,35.28
2023-03-06T23:36:18.161Z,31.33
2023-03-06T23:38:45.351Z,39.33
2023-03-06T23:41:17.338Z,28.17
2023-03-06T23:43:44.969Z,32.28
2023-03-06T23:46:11.773Z,32.28
2023-03-06T23:48:40.523Z,28.55
2023-03-06T23:51:20.903Z,28.88
2023-03-06T23:53:52.908Z,38.88
2023-03-06T23:56:19.510Z,34.97
2023-03-06T23:58:46.160Z,32.97
